sensor_id;sensor_type;location;lat;lon;timestamp;pressure;altitude;pressure_sealevel;temperature;humidity
62600;BME280;48671;48.922;2.346;2023-01-31T00:00:29;102735.19;;;5.46;70.33
62600;BME280;48671;48.922;2.346;2023-01-31T00:02:55;102739.53;;;5.50;70.36
62600;BME280;48671;48.922;2.346;2023-01-31T00:05:20;102718.81;;;5.46;70.03
62600;BME280;48671;48.922;2.346;2023-01-31T00:07:45;102733.56;;;5.54;70.14
62600;BME280;48671;48.922;2.346;2023-01-31T00:10:12;102722.34;;;5.51;70.23
62600;BME280;48671;48.922;2.346;2023-01-31T00:12:37;102712.78;;;5.45;70.27
62600;BME280;48671;48.922;2.346;2023-01-31T00:15:03;102726.63;;;5.52;69.73
62600;BME280;48671;48.922;2.346;2023-01-31T00:17:28;102717.06;;;5.43;70.45
62600;BME280;48671;48.922;2.346;2023-01-31T00:19:54;102710.09;;;5.37;70.17
62600;BME280;48671;48.922;2.346;2023-01-31T00:22:19;102715.31;;;5.40;70.52
62600;BME280;48671;48.922;2.346;2023-01-31T00:24:44;102723.97;;;5.44;70.32
62600;BME280;48671;48.922;2.346;2023-01-31T00:27:10;102723.06;;;5.42;70.31
62600;BME280;48671;48.922;2.346;2023-01-31T00:29:35;102719.63;;;5.42;70.32
62600;BME280;48671;48.922;2.346;2023-01-31T00:32:00;102721.28;;;5.36;69.76
62600;BME280;48671;48.922;2.346;2023-01-31T00:34:26;102714.34;;;5.34;70.50
62600;BME280;48671;48.922;2.346;2023-01-31T00:36:51;102716.06;;;5.33;70.41
62600;BME280;48671;48.922;2.346;2023-01-31T00:39:16;102714.31;;;5.32;70.25
62600;BME280;48671;48.922;2.346;2023-01-31T00:41:42;102727.31;;;5.38;70.45
62600;BME280;48671;48.922;2.346;2023-01-31T00:44:07;102713.44;;;5.30;70.02
62600;BME280;48671;48.922;2.346;2023-01-31T00:46:33;102711.63;;;5.25;70.10
62600;BME280;48671;48.922;2.346;2023-01-31T00:48:58;102706.44;;;5.23;70.38
62600;BME280;48671;48.922;2.346;2023-01-31T00:51:24;102723.78;;;5.32;70.20
62600;BME280;48671;48.922;2.346;2023-01-31T00:53:50;102707.25;;;5.21;69.86
62600;BME280;48671;48.922;2.346;2023-01-31T00:56:18;102704.66;;;5.19;70.03
62600;BME280;48671;48.922;2.346;2023-01-31T00:58:43;102708.88;;;5.15;70.13
62600;BME280;48671;48.922;2.346;2023-01-31T01:01:11;102706.31;;;5.15;70.38
62600;BME280;48671;48.922;2.346;2023-01-31T01:03:38;102709.63;;;5.07;70.83
62600;BME280;48671;48.922;2.346;2023-01-31T01:06:04;102697.50;;;5.03;70.76
62600;BME280;48671;48.922;2.346;2023-01-31T01:08:31;102688.69;;;4.90;70.71
62600;BME280;48671;48.922;2.346;2023-01-31T01:11:00;102683.41;;;4.81;70.56
62600;BME280;48671;48.922;2.346;2023-01-31T01:13:27;102694.53;;;4.80;71.05
62600;BME280;48671;48.922;2.346;2023-01-31T01:15:53;102687.44;;;4.66;71.15
62600;BME280;48671;48.922;2.346;2023-01-31T01:18:18;102680.53;;;4.64;71.45
62600;BME280;48671;48.922;2.346;2023-01-31T01:20:43;102701.38;;;4.76;71.83
62600;BME280;48671;48.922;2.346;2023-01-31T01:23:09;102691.81;;;4.70;71.77
62600;BME280;48671;48.922;2.346;2023-01-31T01:25:44;102690.94;;;4.70;71.53
62600;BME280;48671;48.922;2.346;2023-01-31T01:28:10;102707.38;;;4.77;71.16
62600;BME280;48671;48.922;2.346;2023-01-31T01:30:37;102703.06;;;4.74;71.87
62600;BME280;48671;48.922;2.346;2023-01-31T01:33:03;102704.00;;;4.79;71.51
62600;BME280;48671;48.922;2.346;2023-01-31T01:35:29;102711.00;;;4.86;71.59
62600;BME280;48671;48.922;2.346;2023-01-31T01:37:54;102691.03;;;4.75;71.48
62600;BME280;48671;48.922;2.346;2023-01-31T01:40:20;102705.81;;;4.85;71.84
62600;BME280;48671;48.922;2.346;2023-01-31T01:42:45;102703.31;;;4.88;71.36
62600;BME280;48671;48.922;2.346;2023-01-31T01:45:12;102691.97;;;4.78;71.49
62600;BME280;48671;48.922;2.346;2023-01-31T01:48:00;102694.75;;;4.90;71.68
62600;BME280;48671;48.922;2.346;2023-01-31T01:50:46;102687.00;;;4.90;71.20
62600;BME280;48671;48.922;2.346;2023-01-31T01:53:17;102688.75;;;4.93;71.39
62600;BME280;48671;48.922;2.346;2023-01-31T01:55:46;102689.59;;;4.92;71.42
62600;BME280;48671;48.922;2.346;2023-01-31T01:58:17;102706.84;;;4.96;70.96
62600;BME280;48671;48.922;2.346;2023-01-31T02:00:46;102702.50;;;4.90;71.10
62600;BME280;48671;48.922;2.346;2023-01-31T02:03:12;102690.25;;;4.80;71.14
62600;BME280;48671;48.922;2.346;2023-01-31T02:05:48;102689.38;;;4.78;71.09
62600;BME280;48671;48.922;2.346;2023-01-31T02:08:16;102691.16;;;4.84;71.12
62600;BME280;48671;48.922;2.346;2023-01-31T02:10:54;102688.59;;;4.84;70.89
62600;BME280;48671;48.922;2.346;2023-01-31T02:13:21;102690.28;;;4.82;71.65
62600;BME280;48671;48.922;2.346;2023-01-31T02:15:46;102685.03;;;4.76;71.09
62600;BME280;48671;48.922;2.346;2023-01-31T02:18:12;102676.38;;;4.72;70.88
62600;BME280;48671;48.922;2.346;2023-01-31T02:31:59;102689.56;;;4.40;71.63
62600;BME280;48671;48.922;2.346;2023-01-31T02:37:32;102693.03;;;4.42;72.11
62600;BME280;48671;48.922;2.346;2023-01-31T02:40:16;102698.31;;;4.50;71.96
62600;BME280;48671;48.922;2.346;2023-01-31T02:45:44;102706.97;;;4.54;71.66
62600;BME280;48671;48.922;2.346;2023-01-31T02:51:12;102694.13;;;4.55;71.66
62600;BME280;48671;48.922;2.346;2023-01-31T02:53:43;102684.59;;;4.51;71.59
62600;BME280;48671;48.922;2.346;2023-01-31T02:56:32;102683.78;;;4.54;71.82
62600;BME280;48671;48.922;2.346;2023-01-31T02:59:03;102682.84;;;4.50;71.21
62600;BME280;48671;48.922;2.346;2023-01-31T03:01:32;102683.78;;;4.52;71.40
62600;BME280;48671;48.922;2.346;2023-01-31T03:04:03;102688.00;;;4.49;71.51
62600;BME280;48671;48.922;2.346;2023-01-31T03:09:16;102686.25;;;4.47;71.68
62600;BME280;48671;48.922;2.346;2023-01-31T03:12:01;102686.25;;;4.47;71.66
62600;BME280;48671;48.922;2.346;2023-01-31T03:17:29;102673.13;;;4.34;71.78
62600;BME280;48671;48.922;2.346;2023-01-31T03:20:18;102691.22;;;4.37;71.07
62600;BME280;48671;48.922;2.346;2023-01-31T03:22:50;102690.97;;;4.23;71.74
62600;BME280;48671;48.922;2.346;2023-01-31T03:25:19;102691.75;;;4.19;71.68
62600;BME280;48671;48.922;2.346;2023-01-31T03:27:51;102690.91;;;4.20;71.83
62600;BME280;48671;48.922;2.346;2023-01-31T03:30:26;102701.31;;;4.26;71.86
62600;BME280;48671;48.922;2.346;2023-01-31T03:32:59;102695.25;;;4.24;72.13
62600;BME280;48671;48.922;2.346;2023-01-31T03:35:28;102700.47;;;4.27;71.82
62600;BME280;48671;48.922;2.346;2023-01-31T03:38:03;102704.78;;;4.27;72.00
62600;BME280;48671;48.922;2.346;2023-01-31T03:40:42;102699.56;;;4.23;71.90
62600;BME280;48671;48.922;2.346;2023-01-31T03:43:24;102703.13;;;4.30;72.00
62600;BME280;48671;48.922;2.346;2023-01-31T03:45:56;102702.25;;;4.30;71.67
62600;BME280;48671;48.922;2.346;2023-01-31T03:48:27;102690.28;;;4.32;71.94
62600;BME280;48671;48.922;2.346;2023-01-31T03:51:02;102685.94;;;4.29;71.79
62600;BME280;48671;48.922;2.346;2023-01-31T03:53:39;102693.53;;;4.23;71.22
62600;BME280;48671;48.922;2.346;2023-01-31T03:56:27;102701.13;;;4.15;72.06
62600;BME280;48671;48.922;2.346;2023-01-31T03:59:05;102695.00;;;4.10;72.00
62600;BME280;48671;48.922;2.346;2023-01-31T04:01:35;102699.31;;;4.11;72.60
62600;BME280;48671;48.922;2.346;2023-01-31T04:04:07;102697.56;;;4.10;72.30
62600;BME280;48671;48.922;2.346;2023-01-31T04:06:33;102700.13;;;4.09;72.19
62600;BME280;48671;48.922;2.346;2023-01-31T04:08:59;102700.09;;;4.07;72.71
62600;BME280;48671;48.922;2.346;2023-01-31T04:11:25;102700.06;;;4.06;72.67
62600;BME280;48671;48.922;2.346;2023-01-31T04:13:51;102697.38;;;3.99;72.59
62600;BME280;48671;48.922;2.346;2023-01-31T04:16:17;102690.44;;;3.97;72.59
62600;BME280;48671;48.922;2.346;2023-01-31T04:18:42;102685.28;;;3.97;72.82
62600;BME280;48671;48.922;2.346;2023-01-31T04:21:08;102683.66;;;4.02;73.30
62600;BME280;48671;48.922;2.346;2023-01-31T04:23:34;102694.13;;;4.10;72.44
62600;BME280;48671;48.922;2.346;2023-01-31T04:25:59;102678.56;;;4.05;72.28
62600;BME280;48671;48.922;2.346;2023-01-31T04:28:25;102698.38;;;4.08;72.53
62600;BME280;48671;48.922;2.346;2023-01-31T04:30:54;102700.03;;;4.04;72.15
62600;BME280;48671;48.922;2.346;2023-01-31T04:33:20;102714.56;;;4.02;72.93
62600;BME280;48671;48.922;2.346;2023-01-31T04:35:46;102708.38;;;3.92;72.04
62600;BME280;48671;48.922;2.346;2023-01-31T04:38:11;102681.50;;;3.80;73.01
62600;BME280;48671;48.922;2.346;2023-01-31T04:40:36;102673.84;;;3.83;73.48
62600;BME280;48671;48.922;2.346;2023-01-31T04:43:02;102696.31;;;3.90;73.29
62600;BME280;48671;48.922;2.346;2023-01-31T04:45:27;102696.31;;;3.90;73.24
62600;BME280;48671;48.922;2.346;2023-01-31T04:47:52;102698.63;;;3.78;73.15
62600;BME280;48671;48.922;2.346;2023-01-31T04:50:18;102701.22;;;3.79;73.62
62600;BME280;48671;48.922;2.346;2023-01-31T04:52:43;102701.19;;;3.78;73.96
62600;BME280;48671;48.922;2.346;2023-01-31T04:55:08;102698.63;;;3.78;73.64
62600;BME280;48671;48.922;2.346;2023-01-31T04:57:34;102701.22;;;3.79;73.50
62600;BME280;48671;48.922;2.346;2023-01-31T04:59:59;102692.75;;;3.83;74.01
62600;BME280;48671;48.922;2.346;2023-01-31T05:02:24;102683.31;;;3.85;73.66
62600;BME280;48671;48.922;2.346;2023-01-31T05:04:50;102680.78;;;3.87;74.03
62600;BME280;48671;48.922;2.346;2023-01-31T05:07:15;102675.66;;;3.87;73.53
62600;BME280;48671;48.922;2.346;2023-01-31T05:09:40;102676.59;;;3.92;74.01
62600;BME280;48671;48.922;2.346;2023-01-31T05:12:08;102680.16;;;3.97;73.20
62600;BME280;48671;48.922;2.346;2023-01-31T05:14:33;102691.25;;;3.94;73.92
62600;BME280;48671;48.922;2.346;2023-01-31T05:16:59;102680.81;;;3.88;73.43
62600;BME280;48671;48.922;2.346;2023-01-31T05:19:24;102675.72;;;3.91;73.56
62600;BME280;48671;48.922;2.346;2023-01-31T05:21:49;102668.78;;;3.87;73.26
62600;BME280;48671;48.922;2.346;2023-01-31T05:24:26;102679.16;;;3.92;74.24
62600;BME280;48671;48.922;2.346;2023-01-31T05:26:51;102669.75;;;3.92;73.86
62600;BME280;48671;48.922;2.346;2023-01-31T05:29:20;102667.22;;;3.95;73.33
62600;BME280;48671;48.922;2.346;2023-01-31T05:31:51;102671.50;;;3.95;73.55
62600;BME280;48671;48.922;2.346;2023-01-31T05:34:16;102674.00;;;3.90;73.57
62600;BME280;48671;48.922;2.346;2023-01-31T05:36:42;102683.38;;;3.88;73.67
62600;BME280;48671;48.922;2.346;2023-01-31T05:39:07;102693.69;;;3.88;73.85
62600;BME280;48671;48.922;2.346;2023-01-31T05:41:33;102691.91;;;3.86;73.65
62600;BME280;48671;48.922;2.346;2023-01-31T05:43:58;102685.81;;;3.81;73.97
62600;BME280;48671;48.922;2.346;2023-01-31T05:46:23;102690.97;;;3.81;74.77
62600;BME280;48671;48.922;2.346;2023-01-31T05:48:49;102697.91;;;3.83;74.20
62600;BME280;48671;48.922;2.346;2023-01-31T05:51:14;102693.63;;;3.85;74.81
62600;BME280;48671;48.922;2.346;2023-01-31T05:53:39;102671.22;;;3.81;74.43
62600;BME280;48671;48.922;2.346;2023-01-31T05:56:05;102681.66;;;3.87;74.60
62600;BME280;48671;48.922;2.346;2023-01-31T05:58:30;102672.97;;;3.82;74.08
62600;BME280;48671;48.922;2.346;2023-01-31T06:00:56;102686.06;;;3.93;74.68
62600;BME280;48671;48.922;2.346;2023-01-31T06:03:21;102683.59;;;3.97;74.22
62600;BME280;48671;48.922;2.346;2023-01-31T06:05:47;102674.88;;;3.91;75.02
62600;BME280;48671;48.922;2.346;2023-01-31T06:08:13;102677.50;;;3.92;74.59
62600;BME280;48671;48.922;2.346;2023-01-31T06:10:38;102677.50;;;3.92;75.54
62600;BME280;48671;48.922;2.346;2023-01-31T06:13:03;102665.34;;;3.87;74.79
62600;BME280;48671;48.922;2.346;2023-01-31T06:15:31;102673.13;;;3.90;75.02
62600;BME280;48671;48.922;2.346;2023-01-31T06:17:56;102662.84;;;3.91;75.17
62600;BME280;48671;48.922;2.346;2023-01-31T06:20:22;102669.91;;;4.00;74.60
62600;BME280;48671;48.922;2.346;2023-01-31T06:22:47;102673.22;;;3.94;75.54
62600;BME280;48671;48.922;2.346;2023-01-31T06:25:12;102678.31;;;3.91;75.35
62600;BME280;48671;48.922;2.346;2023-01-31T06:27:38;102677.38;;;3.88;75.74
62600;BME280;48671;48.922;2.346;2023-01-31T06:30:03;102696.38;;;3.93;75.06
62600;BME280;48671;48.922;2.346;2023-01-31T06:32:29;102696.53;;;4.01;75.42
62600;BME280;48671;48.922;2.346;2023-01-31T06:34:54;102702.66;;;4.07;75.28
62600;BME280;48671;48.922;2.346;2023-01-31T06:37:19;102699.19;;;4.05;75.61
62600;BME280;48671;48.922;2.346;2023-01-31T06:39:45;102705.38;;;4.13;75.21
62600;BME280;48671;48.922;2.346;2023-01-31T06:42:10;102708.88;;;4.18;75.08
62600;BME280;48671;48.922;2.346;2023-01-31T06:44:35;102712.41;;;4.22;75.58
62600;BME280;48671;48.922;2.346;2023-01-31T06:47:02;102714.09;;;4.21;75.16
62600;BME280;48671;48.922;2.346;2023-01-31T06:49:27;102723.72;;;4.29;75.28
62600;BME280;48671;48.922;2.346;2023-01-31T06:51:52;102721.16;;;4.30;75.28
62600;BME280;48671;48.922;2.346;2023-01-31T06:54:18;102722.00;;;4.31;75.41
62600;BME280;48671;48.922;2.346;2023-01-31T06:56:43;102710.78;;;4.26;75.41
62600;BME280;48671;48.922;2.346;2023-01-31T06:59:08;102715.06;;;4.27;75.61
62600;BME280;48671;48.922;2.346;2023-01-31T07:01:34;102702.19;;;4.25;75.74
62600;BME280;48671;48.922;2.346;2023-01-31T07:03:59;102709.91;;;4.27;75.09
62600;BME280;48671;48.922;2.346;2023-01-31T07:06:25;102701.28;;;4.25;75.50
62600;BME280;48671;48.922;2.346;2023-01-31T07:08:50;102711.72;;;4.31;75.40
62600;BME280;48671;48.922;2.346;2023-01-31T07:11:16;102699.63;;;4.28;75.56
62600;BME280;48671;48.922;2.346;2023-01-31T07:13:41;102707.47;;;4.34;75.57
62600;BME280;48671;48.922;2.346;2023-01-31T07:16:06;102703.19;;;4.35;75.42
62600;BME280;48671;48.922;2.346;2023-01-31T07:18:32;102705.88;;;4.39;75.69
62600;BME280;48671;48.922;2.346;2023-01-31T07:20:57;102712.78;;;4.42;75.44
62600;BME280;48671;48.922;2.346;2023-01-31T07:23:22;102705.94;;;4.42;75.34
62600;BME280;48671;48.922;2.346;2023-01-31T07:25:48;102710.22;;;4.43;75.64
62600;BME280;48671;48.922;2.346;2023-01-31T07:28:13;102701.66;;;4.44;75.63
62600;BME280;48671;48.922;2.346;2023-01-31T07:30:38;102712.03;;;4.47;75.18
62600;BME280;48671;48.922;2.346;2023-01-31T07:33:08;102707.75;;;4.48;75.76
62600;BME280;48671;48.922;2.346;2023-01-31T07:35:33;102707.88;;;4.56;75.71
62600;BME280;48671;48.922;2.346;2023-01-31T07:37:59;102708.81;;;4.58;75.14
62600;BME280;48671;48.922;2.346;2023-01-31T07:40:24;102699.47;;;4.64;75.12
62600;BME280;48671;48.922;2.346;2023-01-31T07:42:49;102702.84;;;4.63;75.01
62600;BME280;48671;48.922;2.346;2023-01-31T07:45:15;102709.03;;;4.72;74.75
62600;BME280;48671;48.922;2.346;2023-01-31T07:47:40;102718.56;;;4.77;74.85
62600;BME280;48671;48.922;2.346;2023-01-31T07:50:07;102722.06;;;4.79;74.94
62600;BME280;48671;48.922;2.346;2023-01-31T07:52:33;102734.16;;;4.83;75.05
62600;BME280;48671;48.922;2.346;2023-01-31T07:54:58;102731.63;;;4.85;74.89
62600;BME280;48671;48.922;2.346;2023-01-31T07:57:23;102729.06;;;4.86;74.78
62600;BME280;48671;48.922;2.346;2023-01-31T07:59:49;102723.94;;;4.88;74.63
62600;BME280;48671;48.922;2.346;2023-01-31T08:02:15;102721.31;;;4.86;74.60
62600;BME280;48671;48.922;2.346;2023-01-31T08:05:00;102728.34;;;4.95;74.67
62600;BME280;48671;48.922;2.346;2023-01-31T08:07:27;102739.47;;;4.92;74.51
62600;BME280;48671;48.922;2.346;2023-01-31T08:09:53;102730.06;;;4.95;74.54
62600;BME280;48671;48.922;2.346;2023-01-31T08:12:18;102726.63;;;4.94;74.81
62600;BME280;48671;48.922;2.346;2023-01-31T08:14:44;102739.59;;;5.00;74.41
62600;BME280;48671;48.922;2.346;2023-01-31T08:17:09;102734.50;;;5.03;74.48
62600;BME280;48671;48.922;2.346;2023-01-31T08:19:35;102731.09;;;5.04;74.43
62600;BME280;48671;48.922;2.346;2023-01-31T08:22:02;102734.59;;;5.09;74.43
62600;BME280;48671;48.922;2.346;2023-01-31T08:24:28;102733.78;;;5.10;74.64
62600;BME280;48671;48.922;2.346;2023-01-31T08:26:55;102735.56;;;5.16;74.47
62600;BME280;48671;48.922;2.346;2023-01-31T08:29:20;102729.53;;;5.14;74.97
62600;BME280;48671;48.922;2.346;2023-01-31T08:31:46;102732.25;;;5.25;74.63
62600;BME280;48671;48.922;2.346;2023-01-31T08:34:11;102733.94;;;5.23;74.34
62600;BME280;48671;48.922;2.346;2023-01-31T08:36:37;102738.34;;;5.27;74.63
62600;BME280;48671;48.922;2.346;2023-01-31T08:39:03;102717.50;;;5.16;74.28
62600;BME280;48671;48.922;2.346;2023-01-31T08:41:29;102733.16;;;5.27;73.84
62600;BME280;48671;48.922;2.346;2023-01-31T08:43:56;102739.34;;;5.36;74.03
62600;BME280;48671;48.922;2.346;2023-01-31T08:46:23;102743.69;;;5.40;74.12
62600;BME280;48671;48.922;2.346;2023-01-31T08:48:49;102747.16;;;5.43;73.69
62600;BME280;48671;48.922;2.346;2023-01-31T08:51:14;102756.63;;;5.42;73.99
62600;BME280;48671;48.922;2.346;2023-01-31T08:53:41;102752.38;;;5.46;74.19
62600;BME280;48671;48.922;2.346;2023-01-31T08:56:11;102737.78;;;5.46;73.78
62600;BME280;48671;48.922;2.346;2023-01-31T08:58:39;102736.97;;;5.52;73.96
62600;BME280;48671;48.922;2.346;2023-01-31T09:01:16;102741.41;;;5.62;73.61
62600;BME280;48671;48.922;2.346;2023-01-31T09:03:43;102744.22;;;5.77;73.84
62600;BME280;48671;48.922;2.346;2023-01-31T09:06:14;102743.41;;;5.81;72.99
62600;BME280;48671;48.922;2.346;2023-01-31T09:08:40;102734.84;;;5.84;73.05
62600;BME280;48671;48.922;2.346;2023-01-31T09:11:06;102734.94;;;5.92;73.16
62600;BME280;48671;48.922;2.346;2023-01-31T09:13:33;102726.38;;;5.93;72.76
62600;BME280;48671;48.922;2.346;2023-01-31T09:15:59;102742.06;;;6.08;73.10
62600;BME280;48671;48.922;2.346;2023-01-31T09:18:25;102716.09;;;5.97;72.72
62600;BME280;48671;48.922;2.346;2023-01-31T09:20:50;102729.13;;;6.06;72.31
62600;BME280;48671;48.922;2.346;2023-01-31T09:23:16;102739.59;;;6.17;71.88
62600;BME280;48671;48.922;2.346;2023-01-31T09:25:43;102724.00;;;6.09;71.94
62600;BME280;48671;48.922;2.346;2023-01-31T09:28:08;102750.75;;;6.15;72.47
62600;BME280;48671;48.922;2.346;2023-01-31T09:30:34;102751.63;;;6.14;72.30
62600;BME280;48671;48.922;2.346;2023-01-31T09:32:59;102747.34;;;6.17;72.06
62600;BME280;48671;48.922;2.346;2023-01-31T09:35:26;102758.59;;;6.19;72.02
62600;BME280;48671;48.922;2.346;2023-01-31T09:37:51;102762.06;;;6.23;72.05
62600;BME280;48671;48.922;2.346;2023-01-31T09:40:20;102768.06;;;6.20;72.08
62600;BME280;48671;48.922;2.346;2023-01-31T09:42:50;102756.03;;;6.22;71.95
62600;BME280;48671;48.922;2.346;2023-01-31T09:45:36;102771.63;;;6.28;72.14
62600;BME280;48671;48.922;2.346;2023-01-31T09:48:05;102769.91;;;6.29;72.15
62600;BME280;48671;48.922;2.346;2023-01-31T09:50:41;102761.28;;;6.28;71.57
62600;BME280;48671;48.922;2.346;2023-01-31T09:53:11;102771.59;;;6.27;71.58
62600;BME280;48671;48.922;2.346;2023-01-31T10:01:31;102781.94;;;6.27;71.05
62600;BME280;48671;48.922;2.346;2023-01-31T10:07:04;102759.59;;;6.32;71.52
62600;BME280;48671;48.922;2.346;2023-01-31T10:09:42;102773.44;;;6.37;71.25
62600;BME280;48671;48.922;2.346;2023-01-31T10:12:31;102776.88;;;6.36;71.24
62600;BME280;48671;48.922;2.346;2023-01-31T10:15:02;102782.09;;;6.39;71.21
62600;BME280;48671;48.922;2.346;2023-01-31T10:17:36;102776.09;;;6.43;71.45
62600;BME280;48671;48.922;2.346;2023-01-31T10:20:19;102776.97;;;6.44;71.32
62600;BME280;48671;48.922;2.346;2023-01-31T10:22:56;102789.13;;;6.51;71.04
62600;BME280;48671;48.922;2.346;2023-01-31T10:30:54;102763.41;;;6.66;70.79
62600;BME280;48671;48.922;2.346;2023-01-31T10:33:51;102758.34;;;6.75;70.34
62600;BME280;48671;48.922;2.346;2023-01-31T10:42:07;102747.31;;;6.96;69.42
62600;BME280;48671;48.922;2.346;2023-01-31T10:44:46;102749.97;;;7.06;69.59
62600;BME280;48671;48.922;2.346;2023-01-31T10:47:16;102758.66;;;7.12;69.42
62600;BME280;48671;48.922;2.346;2023-01-31T10:49:53;102757.84;;;7.15;68.46
62600;BME280;48671;48.922;2.346;2023-01-31T10:52:35;102748.38;;;7.17;69.09
62600;BME280;48671;48.922;2.346;2023-01-31T10:57:58;102749.31;;;7.26;68.39
62600;BME280;48671;48.922;2.346;2023-01-31T11:00:31;102746.69;;;7.25;67.93
62600;BME280;48671;48.922;2.346;2023-01-31T11:02:58;102744.13;;;7.28;68.02
62600;BME280;48671;48.922;2.346;2023-01-31T11:05:25;102736.41;;;7.33;68.04
62600;BME280;48671;48.922;2.346;2023-01-31T11:07:53;102735.53;;;7.35;68.49
62600;BME280;48671;48.922;2.346;2023-01-31T11:12:58;102723.59;;;7.54;68.01
62600;BME280;48671;48.922;2.346;2023-01-31T11:15:28;102724.50;;;7.64;67.82
62600;BME280;48671;48.922;2.346;2023-01-31T11:17:58;102723.69;;;7.74;67.51
62600;BME280;48671;48.922;2.346;2023-01-31T11:20:29;102727.19;;;7.79;66.68
62600;BME280;48671;48.922;2.346;2023-01-31T11:22:55;102721.16;;;7.80;66.53
62600;BME280;48671;48.922;2.346;2023-01-31T11:25:24;102714.28;;;7.85;67.07
62600;BME280;48671;48.922;2.346;2023-01-31T11:27:53;102716.00;;;7.94;67.37
62600;BME280;48671;48.922;2.346;2023-01-31T11:30:34;102703.06;;;7.97;66.90
62600;BME280;48671;48.922;2.346;2023-01-31T11:33:00;102705.72;;;8.08;66.50
62600;BME280;48671;48.922;2.346;2023-01-31T11:35:28;102707.44;;;8.09;65.91
62600;BME280;48671;48.922;2.346;2023-01-31T11:38:01;102697.94;;;8.08;65.89
62600;BME280;48671;48.922;2.346;2023-01-31T11:40:32;102688.44;;;8.08;65.97
62600;BME280;48671;48.922;2.346;2023-01-31T11:43:00;102684.97;;;8.11;66.23
62600;BME280;48671;48.922;2.346;2023-01-31T11:45:29;102673.75;;;8.15;65.60
62600;BME280;48671;48.922;2.346;2023-01-31T11:47:58;102672.03;;;8.17;65.57
62600;BME280;48671;48.922;2.346;2023-01-31T11:50:36;102672.06;;;8.21;65.44
62600;BME280;48671;48.922;2.346;2023-01-31T11:53:12;102667.72;;;8.20;64.90
62600;BME280;48671;48.922;2.346;2023-01-31T11:55:39;102673.78;;;8.24;65.38
62600;BME280;48671;48.922;2.346;2023-01-31T11:58:33;102673.78;;;8.29;64.98
62600;BME280;48671;48.922;2.346;2023-01-31T12:03:30;102664.28;;;8.25;65.42
62600;BME280;48671;48.922;2.346;2023-01-31T12:06:07;102667.75;;;8.25;63.90
62600;BME280;48671;48.922;2.346;2023-01-31T12:08:38;102664.28;;;8.25;65.51
62600;BME280;48671;48.922;2.346;2023-01-31T12:11:26;102669.47;;;8.25;66.00
62600;BME280;48671;48.922;2.346;2023-01-31T12:13:53;102658.22;;;8.23;65.27
62600;BME280;48671;48.922;2.346;2023-01-31T12:16:24;102665.16;;;8.28;65.03
62600;BME280;48671;48.922;2.346;2023-01-31T12:24:31;102659.13;;;8.40;64.87
62600;BME280;48671;48.922;2.346;2023-01-31T12:35:31;102633.22;;;8.60;65.25
62600;BME280;48671;48.922;2.346;2023-01-31T12:40:59;102631.50;;;8.65;63.98
62600;BME280;48671;48.922;2.346;2023-01-31T12:49:00;102614.19;;;8.68;64.32
62600;BME280;48671;48.922;2.346;2023-01-31T12:51:49;102616.78;;;8.76;64.34
62600;BME280;48671;48.922;2.346;2023-01-31T13:03:34;102592.50;;;8.99;64.07
62600;BME280;48671;48.922;2.346;2023-01-31T13:06:35;102587.34;;;9.03;63.40
62600;BME280;48671;48.922;2.346;2023-01-31T13:09:11;102583.00;;;9.10;64.07
62600;BME280;48671;48.922;2.346;2023-01-31T13:11:55;102588.13;;;9.21;63.35
62600;BME280;48671;48.922;2.346;2023-01-31T13:14:25;102577.72;;;9.30;62.69
62600;BME280;48671;48.922;2.346;2023-01-31T13:16:54;102581.19;;;9.33;63.37
62600;BME280;48671;48.922;2.346;2023-01-31T13:19:35;102579.44;;;9.35;62.97
62600;BME280;48671;48.922;2.346;2023-01-31T13:22:12;102569.00;;;9.46;62.93
62600;BME280;48671;48.922;2.346;2023-01-31T13:24:41;102552.31;;;9.84;62.32
62600;BME280;48671;48.922;2.346;2023-01-31T13:27:15;102566.63;;;10.51;63.15
62600;BME280;48671;48.922;2.346;2023-01-31T13:29:48;102551.25;;;11.10;60.98
62600;BME280;48671;48.922;2.346;2023-01-31T13:32:47;102542.25;;;11.38;59.81
62600;BME280;48671;48.922;2.346;2023-01-31T13:37:44;102516.13;;;11.41;57.24
62600;BME280;48671;48.922;2.346;2023-01-31T13:42:41;102516.59;;;11.71;56.31
62600;BME280;48671;48.922;2.346;2023-01-31T13:45:08;102537.88;;;12.02;57.55
62600;BME280;48671;48.922;2.346;2023-01-31T13:48:02;102540.91;;;12.30;57.37
62600;BME280;48671;48.922;2.346;2023-01-31T13:50:34;102527.66;;;12.41;56.97
62600;BME280;48671;48.922;2.346;2023-01-31T13:53:04;102534.13;;;12.18;55.90
62600;BME280;48671;48.922;2.346;2023-01-31T13:55:37;102529.94;;;12.08;56.10
62600;BME280;48671;48.922;2.346;2023-01-31T13:58:15;102534.13;;;12.20;55.47
62600;BME280;48671;48.922;2.346;2023-01-31T14:00:45;102531.34;;;12.29;56.68
62600;BME280;48671;48.922;2.346;2023-01-31T14:03:18;102534.59;;;12.44;54.17
62600;BME280;48671;48.922;2.346;2023-01-31T14:08:35;102546.53;;;12.57;55.98
62600;BME280;48671;48.922;2.346;2023-01-31T14:14:15;102553.16;;;12.25;55.03
62600;BME280;48671;48.922;2.346;2023-01-31T14:16:43;102548.53;;;11.87;56.14
62600;BME280;48671;48.922;2.346;2023-01-31T14:21:53;102556.56;;;11.71;56.34
62600;BME280;48671;48.922;2.346;2023-01-31T14:27:21;102565.84;;;11.26;56.93
62600;BME280;48671;48.922;2.346;2023-01-31T14:32:46;102559.00;;;11.16;57.67
62600;BME280;48671;48.922;2.346;2023-01-31T14:54:37;102573.69;;;10.35;59.81
62600;BME280;48671;48.922;2.346;2023-01-31T14:57:16;102574.66;;;10.20;60.53
62600;BME280;48671;48.922;2.346;2023-01-31T15:05:06;102586.81;;;10.12;60.89
62600;BME280;48671;48.922;2.346;2023-01-31T15:07:33;102580.78;;;10.07;60.97
62600;BME280;48671;48.922;2.346;2023-01-31T15:09:58;102570.47;;;9.96;61.23
62600;BME280;48671;48.922;2.346;2023-01-31T15:12:53;102580.88;;;9.93;61.33
62600;BME280;48671;48.922;2.346;2023-01-31T15:15:25;102578.28;;;9.90;61.75
62600;BME280;48671;48.922;2.346;2023-01-31T15:17:54;102571.38;;;9.86;61.87
62600;BME280;48671;48.922;2.346;2023-01-31T15:20:33;102580.91;;;9.87;62.21